sensor_id;sensor_type;location;lat;lon;timestamp;P1;durP1;ratioP1;P2;durP2;ratioP2
85297;SDS011;75703;45.506;-73.576;2024-02-21T00:01:15;12.23;;;8.02;;
85297;SDS011;75703;45.506;-73.576;2024-02-21T00:03:41;11.63;;;7.20;;
85297;SDS011;75703;45.506;-73.576;2024-02-21T00:06:11;13.43;;;7.25;;
85297;SDS011;75703;45.506;-73.576;2024-02-21T00:08:37;12.77;;;6.75;;
85297;SDS011;75703;45.506;-73.576;2024-02-21T00:11:03;9.82;;;6.32;;
85297;SDS011;75703;45.506;-73.576;2024-02-21T00:13:29;11.18;;;7.05;;
85297;SDS011;75703;45.506;-73.576;2024-02-21T00:15:55;8.32;;;5.93;;
85297;SDS011;75703;45.506;-73.576;2024-02-21T00:18:21;15.45;;;7.97;;
85297;SDS011;75703;45.506;-73.576;2024-02-21T00:20:46;10.77;;;6.20;;
85297;SDS011;75703;45.506;-73.576;2024-02-21T00:23:12;10.38;;;6.93;;
85297;SDS011;75703;45.506;-73.576;2024-02-21T00:25:38;12.05;;;7.03;;
85297;SDS011;75703;45.506;-73.576;2024-02-21T00:28:11;9.18;;;5.82;;
85297;SDS011;75703;45.506;-73.576;2024-02-21T00:30:37;10.60;;;6.25;;
85297;SDS011;75703;45.506;-73.576;2024-02-21T00:33:03;13.27;;;6.63;;
85297;SDS011;75703;45.506;-73.576;2024-02-21T00:35:37;9.32;;;6.10;;
85297;SDS011;75703;45.506;-73.576;2024-02-21T00:38:03;10.27;;;6.50;;
85297;SDS011;75703;45.506;-73.576;2024-02-21T00:40:29;9.18;;;5.30;;
85297;SDS011;75703;45.506;-73.576;2024-02-21T00:42:55;7.93;;;5.30;;
85297;SDS011;75703;45.506;-73.576;2024-02-21T00:45:20;11.38;;;6.15;;
85297;SDS011;75703;45.506;-73.576;2024-02-21T00:47:46;14.23;;;6.50;;
85297;SDS011;75703;45.506;-73.576;2024-02-21T00:50:12;10.85;;;6.72;;
85297;SDS011;75703;45.506;-73.576;2024-02-21T00:52:38;9.80;;;5.30;;
85297;SDS011;75703;45.506;-73.576;2024-02-21T00:55:04;8.85;;;4.95;;
85297;SDS011;75703;45.506;-73.576;2024-02-21T00:57:37;7.35;;;5.10;;
85297;SDS011;75703;45.506;-73.576;2024-02-21T01:00:03;7.03;;;4.93;;
85297;SDS011;75703;45.506;-73.576;2024-02-21T01:02:36;9.32;;;5.97;;
85297;SDS011;75703;45.506;-73.576;2024-02-21T01:05:02;10.13;;;5.20;;
85297;SDS011;75703;45.506;-73.576;2024-02-21T01:07:28;7.95;;;5.00;;
85297;SDS011;75703;45.506;-73.576;2024-02-21T01:09:54;8.55;;;5.13;;
85297;SDS011;75703;45.506;-73.576;2024-02-21T01:12:20;8.93;;;5.35;;
85297;SDS011;75703;45.506;-73.576;2024-02-21T01:14:46;9.25;;;5.40;;
85297;SDS011;75703;45.506;-73.576;2024-02-21T01:17:12;7.35;;;4.90;;
85297;SDS011;75703;45.506;-73.576;2024-02-21T01:19:38;8.43;;;5.13;;
85297;SDS011;75703;45.506;-73.576;2024-02-21T01:22:03;5.63;;;3.92;;
85297;SDS011;75703;45.506;-73.576;2024-02-21T01:24:37;7.93;;;3.95;;
85297;SDS011;75703;45.506;-73.576;2024-02-21T01:27:02;7.65;;;4.78;;
85297;SDS011;75703;45.506;-73.576;2024-02-21T01:29:28;8.27;;;4.72;;
85297;SDS011;75703;45.506;-73.576;2024-02-21T01:31:54;8.27;;;5.07;;
85297;SDS011;75703;45.506;-73.576;2024-02-21T01:34:20;9.68;;;5.05;;
85297;SDS011;75703;45.506;-73.576;2024-02-21T01:36:46;7.18;;;4.20;;
85297;SDS011;75703;45.506;-73.576;2024-02-21T01:39:12;9.73;;;5.28;;
85297;SDS011;75703;45.506;-73.576;2024-02-21T01:41:38;8.13;;;4.70;;
85297;SDS011;75703;45.506;-73.576;2024-02-21T01:44:03;12.60;;;6.75;;
85297;SDS011;75703;45.506;-73.576;2024-02-21T01:46:36;8.40;;;4.43;;
85297;SDS011;75703;45.506;-73.576;2024-02-21T01:49:02;7.82;;;4.72;;
85297;SDS011;75703;45.506;-73.576;2024-02-21T01:51:37;8.52;;;5.07;;
85297;SDS011;75703;45.506;-73.576;2024-02-21T01:54:02;5.75;;;3.78;;
85297;SDS011;75703;45.506;-73.576;2024-02-21T01:56:28;8.50;;;4.85;;
85297;SDS011;75703;45.506;-73.576;2024-02-21T01:58:54;6.45;;;4.15;;
85297;SDS011;75703;45.506;-73.576;2024-02-21T02:01:21;8.65;;;4.95;;
85297;SDS011;75703;45.506;-73.576;2024-02-21T02:03:47;8.65;;;5.00;;
85297;SDS011;75703;45.506;-73.576;2024-02-21T02:06:13;6.80;;;4.20;;
85297;SDS011;75703;45.506;-73.576;2024-02-21T02:08:39;7.05;;;4.55;;
85297;SDS011;75703;45.506;-73.576;2024-02-21T02:11:13;7.78;;;4.40;;
85297;SDS011;75703;45.506;-73.576;2024-02-21T02:13:39;7.80;;;4.60;;
85297;SDS011;75703;45.506;-73.576;2024-02-21T02:16:14;6.57;;;3.97;;
85297;SDS011;75703;45.506;-73.576;2024-02-21T02:18:40;6.35;;;3.88;;
85297;SDS011;75703;45.506;-73.576;2024-02-21T02:21:13;6.47;;;4.05;;
85297;SDS011;75703;45.506;-73.576;2024-02-21T02:23:48;7.18;;;4.18;;
85297;SDS011;75703;45.506;-73.576;2024-02-21T02:26:14;6.38;;;4.30;;
85297;SDS011;75703;45.506;-73.576;2024-02-21T02:28:40;8.50;;;4.25;;
85297;SDS011;75703;45.506;-73.576;2024-02-21T02:31:11;7.80;;;4.15;;
85297;SDS011;75703;45.506;-73.576;2024-02-21T02:33:37;5.93;;;3.70;;
85297;SDS011;75703;45.506;-73.576;2024-02-21T02:36:03;6.57;;;4.07;;
85297;SDS011;75703;45.506;-73.576;2024-02-21T02:38:29;6.63;;;3.83;;
85297;SDS011;75703;45.506;-73.576;2024-02-21T02:40:55;6.65;;;3.92;;
85297;SDS011;75703;45.506;-73.576;2024-02-21T02:43:21;5.70;;;3.85;;
85297;SDS011;75703;45.506;-73.576;2024-02-21T02:45:47;5.45;;;3.58;;
85297;SDS011;75703;45.506;-73.576;2024-02-21T02:48:12;5.70;;;3.33;;
85297;SDS011;75703;45.506;-73.576;2024-02-21T02:50:38;7.07;;;3.97;;
85297;SDS011;75703;45.506;-73.576;2024-02-21T02:53:04;5.95;;;3.58;;
85297;SDS011;75703;45.506;-73.576;2024-02-21T02:55:37;5.72;;;4.70;;
85297;SDS011;75703;45.506;-73.576;2024-02-21T02:58:03;6.97;;;4.30;;
85297;SDS011;75703;45.506;-73.576;2024-02-21T03:00:29;5.43;;;3.60;;
85297;SDS011;75703;45.506;-73.576;2024-02-21T03:02:55;5.68;;;3.60;;
85297;SDS011;75703;45.506;-73.576;2024-02-21T03:05:21;5.78;;;3.45;;
85297;SDS011;75703;45.506;-73.576;2024-02-21T03:07:47;6.25;;;3.88;;
85297;SDS011;75703;45.506;-73.576;2024-02-21T03:10:14;7.63;;;4.03;;
85297;SDS011;75703;45.506;-73.576;2024-02-21T03:12:41;6.82;;;3.65;;
85297;SDS011;75703;45.506;-73.576;2024-02-21T03:15:12;5.93;;;3.22;;
85297;SDS011;75703;45.506;-73.576;2024-02-21T03:17:38;6.57;;;3.63;;
85297;SDS011;75703;45.506;-73.576;2024-02-21T03:20:04;7.43;;;4.30;;
85297;SDS011;75703;45.506;-73.576;2024-02-21T03:22:38;9.02;;;4.25;;
85297;SDS011;75703;45.506;-73.576;2024-02-21T03:25:04;6.82;;;3.65;;
85297;SDS011;75703;45.506;-73.576;2024-02-21T03:27:39;6.53;;;3.88;;
85297;SDS011;75703;45.506;-73.576;2024-02-21T03:30:12;6.53;;;3.35;;
85297;SDS011;75703;45.506;-73.576;2024-02-21T03:32:38;5.70;;;3.80;;
85297;SDS011;75703;45.506;-73.576;2024-02-21T03:35:04;6.45;;;4.03;;
85297;SDS011;75703;45.506;-73.576;2024-02-21T03:37:37;7.15;;;4.20;;
85297;SDS011;75703;45.506;-73.576;2024-02-21T03:40:06;7.30;;;4.30;;
85297;SDS011;75703;45.506;-73.576;2024-02-21T03:42:37;6.55;;;3.88;;
85297;SDS011;75703;45.506;-73.576;2024-02-21T03:45:03;6.65;;;4.00;;
85297;SDS011;75703;45.506;-73.576;2024-02-21T03:47:37;7.65;;;4.40;;
85297;SDS011;75703;45.506;-73.576;2024-02-21T03:50:03;7.47;;;4.15;;
85297;SDS011;75703;45.506;-73.576;2024-02-21T03:52:37;6.45;;;4.30;;
85297;SDS011;75703;45.506;-73.576;2024-02-21T03:55:03;6.57;;;4.03;;
85297;SDS011;75703;45.506;-73.576;2024-02-21T03:57:29;6.10;;;4.28;;
85297;SDS011;75703;45.506;-73.576;2024-02-21T03:59:55;7.57;;;4.13;;
85297;SDS011;75703;45.506;-73.576;2024-02-21T04:02:21;7.97;;;4.32;;
85297;SDS011;75703;45.506;-73.576;2024-02-21T04:04:46;8.48;;;5.15;;
85297;SDS011;75703;45.506;-73.576;2024-02-21T04:07:16;8.05;;;4.53;;
85297;SDS011;75703;45.506;-73.576;2024-02-21T04:09:42;7.15;;;4.22;;
85297;SDS011;75703;45.506;-73.576;2024-02-21T04:12:13;9.20;;;4.75;;
85297;SDS011;75703;45.506;-73.576;2024-02-21T04:14:39;6.57;;;4.47;;
85297;SDS011;75703;45.506;-73.576;2024-02-21T04:17:11;6.80;;;3.88;;
85297;SDS011;75703;45.506;-73.576;2024-02-21T04:19:37;7.28;;;4.50;;
85297;SDS011;75703;45.506;-73.576;2024-02-21T04:22:03;6.68;;;4.32;;
85297;SDS011;75703;45.506;-73.576;2024-02-21T04:24:29;6.13;;;3.83;;
85297;SDS011;75703;45.506;-73.576;2024-02-21T04:26:55;8.07;;;4.35;;
85297;SDS011;75703;45.506;-73.576;2024-02-21T04:29:21;9.68;;;4.78;;
85297;SDS011;75703;45.506;-73.576;2024-02-21T04:31:46;7.43;;;4.20;;
85297;SDS011;75703;45.506;-73.576;2024-02-21T04:34:12;6.85;;;4.30;;
85297;SDS011;75703;45.506;-73.576;2024-02-21T04:36:38;7.07;;;4.43;;
85297;SDS011;75703;45.506;-73.576;2024-02-21T04:39:04;7.57;;;4.13;;
85297;SDS011;75703;45.506;-73.576;2024-02-21T04:41:37;7.53;;;4.53;;
85297;SDS011;75703;45.506;-73.576;2024-02-21T04:44:02;5.38;;;3.67;;
85297;SDS011;75703;45.506;-73.576;2024-02-21T04:46:29;6.13;;;4.15;;
85297;SDS011;75703;45.506;-73.576;2024-02-21T04:48:55;6.35;;;3.70;;
85297;SDS011;75703;45.506;-73.576;2024-02-21T04:51:21;7.93;;;4.63;;
85297;SDS011;75703;45.506;-73.576;2024-02-21T04:53:48;7.47;;;4.68;;
85297;SDS011;75703;45.506;-73.576;2024-02-21T04:56:14;7.00;;;4.03;;
85297;SDS011;75703;45.506;-73.576;2024-02-21T04:58:39;7.35;;;4.30;;
85297;SDS011;75703;45.506;-73.576;2024-02-21T05:01:11;9.55;;;5.40;;
85297;SDS011;75703;45.506;-73.576;2024-02-21T05:03:38;8.40;;;4.68;;
85297;SDS011;75703;45.506;-73.576;2024-02-21T05:06:04;6.72;;;3.88;;
85297;SDS011;75703;45.506;-73.576;2024-02-21T05:08:37;7.18;;;4.18;;
85297;SDS011;75703;45.506;-73.576;2024-02-21T05:11:03;4.80;;;3.40;;
85297;SDS011;75703;45.506;-73.576;2024-02-21T05:13:28;6.32;;;3.70;;
85297;SDS011;75703;45.506;-73.576;2024-02-21T05:15:54;5.82;;;3.97;;
85297;SDS011;75703;45.506;-73.576;2024-02-21T05:18:20;5.72;;;3.40;;
85297;SDS011;75703;45.506;-73.576;2024-02-21T05:20:46;5.78;;;3.38;;
85297;SDS011;75703;45.506;-73.576;2024-02-21T05:23:12;6.22;;;3.83;;
85297;SDS011;75703;45.506;-73.576;2024-02-21T05:25:37;5.82;;;3.40;;
85297;SDS011;75703;45.506;-73.576;2024-02-21T05:28:03;5.70;;;3.25;;
85297;SDS011;75703;45.506;-73.576;2024-02-21T05:30:37;7.05;;;3.88;;
85297;SDS011;75703;45.506;-73.576;2024-02-21T05:33:05;5.90;;;3.20;;
85297;SDS011;75703;45.506;-73.576;2024-02-21T05:35:38;5.82;;;3.60;;
85297;SDS011;75703;45.506;-73.576;2024-02-21T05:38:03;6.22;;;3.50;;
85297;SDS011;75703;45.506;-73.576;2024-02-21T05:40:37;5.78;;;3.40;;
85297;SDS011;75703;45.506;-73.576;2024-02-21T05:43:03;7.53;;;3.72;;
85297;SDS011;75703;45.506;-73.576;2024-02-21T05:45:29;7.00;;;4.30;;
85297;SDS011;75703;45.506;-73.576;2024-02-21T05:47:55;6.40;;;3.50;;
85297;SDS011;75703;45.506;-73.576;2024-02-21T05:50:22;6.03;;;3.60;;
85297;SDS011;75703;45.506;-73.576;2024-02-21T05:52:51;7.38;;;4.32;;
85297;SDS011;75703;45.506;-73.576;2024-02-21T05:55:17;7.53;;;4.30;;
85297;SDS011;75703;45.506;-73.576;2024-02-21T05:57:43;7.13;;;4.20;;
85297;SDS011;75703;45.506;-73.576;2024-02-21T06:00:12;5.50;;;3.60;;
85297;SDS011;75703;45.506;-73.576;2024-02-21T06:02:38;6.68;;;3.80;;
85297;SDS011;75703;45.506;-73.576;2024-02-21T06:05:14;5.05;;;3.78;;
85297;SDS011;75703;45.506;-73.576;2024-02-21T06:07:39;5.32;;;3.50;;
85297;SDS011;75703;45.506;-73.576;2024-02-21T06:10:12;5.93;;;3.58;;
85297;SDS011;75703;45.506;-73.576;2024-02-21T06:12:38;7.80;;;4.20;;
85297;SDS011;75703;45.506;-73.576;2024-02-21T06:15:03;5.60;;;3.42;;
85297;SDS011;75703;45.506;-73.576;2024-02-21T06:17:37;6.93;;;4.15;;
85297;SDS011;75703;45.506;-73.576;2024-02-21T06:20:03;5.72;;;3.70;;
85297;SDS011;75703;45.506;-73.576;2024-02-21T06:22:29;6.80;;;3.92;;
85297;SDS011;75703;45.506;-73.576;2024-02-21T06:24:55;6.43;;;3.90;;
85297;SDS011;75703;45.506;-73.576;2024-02-21T06:27:21;6.72;;;4.05;;
85297;SDS011;75703;45.506;-73.576;2024-02-21T06:29:47;6.10;;;3.60;;
85297;SDS011;75703;45.506;-73.576;2024-02-21T06:32:13;6.63;;;3.95;;
85297;SDS011;75703;45.506;-73.576;2024-02-21T06:34:38;6.35;;;4.03;;
85297;SDS011;75703;45.506;-73.576;2024-02-21T06:37:04;6.07;;;3.63;;
85297;SDS011;75703;45.506;-73.576;2024-02-21T06:39:37;5.05;;;3.38;;
85297;SDS011;75703;45.506;-73.576;2024-02-21T06:42:12;6.07;;;3.78;;
85297;SDS011;75703;45.506;-73.576;2024-02-21T06:44:37;7.88;;;4.20;;
85297;SDS011;75703;45.506;-73.576;2024-02-21T06:47:12;5.47;;;3.63;;
85297;SDS011;75703;45.506;-73.576;2024-02-21T06:49:37;5.32;;;3.80;;
85297;SDS011;75703;45.506;-73.576;2024-02-21T06:52:04;7.45;;;3.97;;
85297;SDS011;75703;45.506;-73.576;2024-02-21T06:54:41;7.07;;;3.90;;
85297;SDS011;75703;45.506;-73.576;2024-02-21T06:57:12;5.90;;;3.42;;
85297;SDS011;75703;45.506;-73.576;2024-02-21T06:59:39;6.10;;;3.45;;
85297;SDS011;75703;45.506;-73.576;2024-02-21T07:02:12;6.15;;;4.18;;
85297;SDS011;75703;45.506;-73.576;2024-02-21T07:04:37;6.15;;;4.40;;
85297;SDS011;75703;45.506;-73.576;2024-02-21T07:07:03;6.07;;;4.18;;
85297;SDS011;75703;45.506;-73.576;2024-02-21T07:09:29;6.78;;;3.92;;
85297;SDS011;75703;45.506;-73.576;2024-02-21T07:11:59;6.13;;;3.70;;
85297;SDS011;75703;45.506;-73.576;2024-02-21T07:14:25;6.35;;;4.13;;
85297;SDS011;75703;45.506;-73.576;2024-02-21T07:16:53;4.72;;;3.67;;
85297;SDS011;75703;45.506;-73.576;2024-02-21T07:19:19;5.88;;;3.20;;
85297;SDS011;75703;45.506;-73.576;2024-02-21T07:21:45;4.53;;;3.47;;
85297;SDS011;75703;45.506;-73.576;2024-02-21T07:24:14;6.40;;;4.03;;
85297;SDS011;75703;45.506;-73.576;2024-02-21T07:26:43;6.65;;;3.78;;
85297;SDS011;75703;45.506;-73.576;2024-02-21T07:29:12;6.25;;;4.13;;
85297;SDS011;75703;45.506;-73.576;2024-02-21T07:31:40;7.10;;;4.35;;
85297;SDS011;75703;45.506;-73.576;2024-02-21T07:34:12;7.93;;;3.83;;
85297;SDS011;75703;45.506;-73.576;2024-02-21T07:36:37;7.07;;;4.10;;
85297;SDS011;75703;45.506;-73.576;2024-02-21T07:39:04;7.35;;;4.32;;
85297;SDS011;75703;45.506;-73.576;2024-02-21T07:41:36;6.47;;;3.65;;
85297;SDS011;75703;45.506;-73.576;2024-02-21T07:44:04;6.00;;;3.53;;
85297;SDS011;75703;45.506;-73.576;2024-02-21T07:46:37;7.13;;;4.10;;
85297;SDS011;75703;45.506;-73.576;2024-02-21T07:49:03;5.68;;;3.80;;
85297;SDS011;75703;45.506;-73.576;2024-02-21T07:51:29;9.02;;;4.78;;
85297;SDS011;75703;45.506;-73.576;2024-02-21T07:53:54;6.63;;;4.43;;
85297;SDS011;75703;45.506;-73.576;2024-02-21T07:56:21;7.68;;;4.25;;
85297;SDS011;75703;45.506;-73.576;2024-02-21T07:58:46;5.75;;;3.75;;
85297;SDS011;75703;45.506;-73.576;2024-02-21T08:01:17;7.05;;;4.30;;
85297;SDS011;75703;45.506;-73.576;2024-02-21T08:03:45;7.20;;;4.60;;
85297;SDS011;75703;45.506;-73.576;2024-02-21T08:06:14;5.78;;;3.90;;
85297;SDS011;75703;45.506;-73.576;2024-02-21T08:08:40;7.47;;;4.60;;
85297;SDS011;75703;45.506;-73.576;2024-02-21T08:11:12;8.00;;;4.22;;
85297;SDS011;75703;45.506;-73.576;2024-02-21T08:13:37;6.68;;;4.13;;
85297;SDS011;75703;45.506;-73.576;2024-02-21T08:16:03;7.22;;;4.22;;
85297;SDS011;75703;45.506;-73.576;2024-02-21T08:18:29;9.23;;;4.50;;
85297;SDS011;75703;45.506;-73.576;2024-02-21T08:20:55;10.30;;;4.82;;
85297;SDS011;75703;45.506;-73.576;2024-02-21T08:23:22;8.82;;;4.47;;
85297;SDS011;75703;45.506;-73.576;2024-02-21T08:25:49;7.07;;;4.75;;
85297;SDS011;75703;45.506;-73.576;2024-02-21T08:28:15;7.05;;;4.50;;
85297;SDS011;75703;45.506;-73.576;2024-02-21T08:30:40;8.10;;;4.72;;
85297;SDS011;75703;45.506;-73.576;2024-02-21T08:33:12;8.65;;;4.55;;
85297;SDS011;75703;45.506;-73.576;2024-02-21T08:35:39;10.95;;;5.70;;
85297;SDS011;75703;45.506;-73.576;2024-02-21T08:38:12;7.72;;;4.18;;
85297;SDS011;75703;45.506;-73.576;2024-02-21T08:40:38;8.55;;;4.90;;
85297;SDS011;75703;45.506;-73.576;2024-02-21T08:43:03;8.27;;;4.80;;
85297;SDS011;75703;45.506;-73.576;2024-02-21T08:45:29;6.45;;;4.55;;
85297;SDS011;75703;45.506;-73.576;2024-02-21T08:47:55;7.47;;;4.97;;
85297;SDS011;75703;45.506;-73.576;2024-02-21T08:50:21;8.32;;;4.55;;
85297;SDS011;75703;45.506;-73.576;2024-02-21T08:52:47;6.97;;;4.40;;
85297;SDS011;75703;45.506;-73.576;2024-02-21T08:55:12;7.10;;;4.30;;
85297;SDS011;75703;45.506;-73.576;2024-02-21T08:57:38;9.10;;;4.40;;
85297;SDS011;75703;45.506;-73.576;2024-02-21T09:00:04;6.72;;;4.15;;
85297;SDS011;75703;45.506;-73.576;2024-02-21T09:02:41;9.00;;;4.20;;
85297;SDS011;75703;45.506;-73.576;2024-02-21T09:05:12;7.57;;;4.47;;
85297;SDS011;75703;45.506;-73.576;2024-02-21T09:07:38;7.45;;;4.30;;
85297;SDS011;75703;45.506;-73.576;2024-02-21T09:10:04;6.43;;;3.70;;
85297;SDS011;75703;45.506;-73.576;2024-02-21T09:12:37;7.35;;;4.32;;
85297;SDS011;75703;45.506;-73.576;2024-02-21T09:15:03;6.93;;;4.60;;
85297;SDS011;75703;45.506;-73.576;2024-02-21T09:17:29;7.97;;;4.70;;
85297;SDS011;75703;45.506;-73.576;2024-02-21T09:19:55;6.15;;;4.22;;
85297;SDS011;75703;45.506;-73.576;2024-02-21T09:22:24;8.00;;;4.15;;
85297;SDS011;75703;45.506;-73.576;2024-02-21T09:24:49;7.80;;;4.25;;
85297;SDS011;75703;45.506;-73.576;2024-02-21T09:27:15;7.10;;;4.68;;
85297;SDS011;75703;45.506;-73.576;2024-02-21T09:29:41;8.25;;;4.93;;
85297;SDS011;75703;45.506;-73.576;2024-02-21T09:32:13;7.43;;;4.38;;
85297;SDS011;75703;45.506;-73.576;2024-02-21T09:34:39;7.38;;;4.35;;
85297;SDS011;75703;45.506;-73.576;2024-02-21T09:37:12;6.95;;;4.35;;
85297;SDS011;75703;45.506;-73.576;2024-02-21T09:39:38;7.15;;;4.75;;
85297;SDS011;75703;45.506;-73.576;2024-02-21T09:42:12;8.75;;;4.43;;
85297;SDS011;75703;45.506;-73.576;2024-02-21T09:44:38;7.88;;;4.60;;
85297;SDS011;75703;45.506;-73.576;2024-02-21T09:47:18;6.78;;;4.78;;
85297;SDS011;75703;45.506;-73.576;2024-02-21T09:49:48;8.02;;;4.95;;
85297;SDS011;75703;45.506;-73.576;2024-02-21T09:52:14;7.68;;;4.43;;
85297;SDS011;75703;45.506;-73.576;2024-02-21T09:54:41;7.80;;;4.63;;
85297;SDS011;75703;45.506;-73.576;2024-02-21T09:57:12;6.25;;;4.25;;
85297;SDS011;75703;45.506;-73.576;2024-02-21T09:59:38;7.20;;;4.57;;
85297;SDS011;75703;45.506;-73.576;2024-02-21T10:02:12;7.22;;;4.30;;
85297;SDS011;75703;45.506;-73.576;2024-02-21T10:04:39;7.65;;;4.70;;
85297;SDS011;75703;45.506;-73.576;2024-02-21T10:07:12;7.22;;;4.22;;
85297;SDS011;75703;45.506;-73.576;2024-02-21T10:09:38;6.85;;;4.18;;
85297;SDS011;75703;45.506;-73.576;2024-02-21T10:12:12;5.40;;;3.95;;
85297;SDS011;75703;45.506;-73.576;2024-02-21T10:14:38;7.22;;;4.47;;
85297;SDS011;75703;45.506;-73.576;2024-02-21T10:17:04;7.03;;;4.28;;
85297;SDS011;75703;45.506;-73.576;2024-02-21T10:19:37;6.07;;;4.28;;
85297;SDS011;75703;45.506;-73.576;2024-02-21T10:22:05;6.10;;;3.95;;
85297;SDS011;75703;45.506;-73.576;2024-02-21T10:24:37;7.75;;;4.80;;
85297;SDS011;75703;45.506;-73.576;2024-02-21T10:27:12;7.50;;;4.25;;
85297;SDS011;75703;45.506;-73.576;2024-02-21T10:29:38;7.18;;;4.68;;
85297;SDS011;75703;45.506;-73.576;2024-02-21T10:32:12;6.57;;;4.22;;
85297;SDS011;75703;45.506;-73.576;2024-02-21T10:34:40;7.72;;;5.22;;
85297;SDS011;75703;45.506;-73.576;2024-02-21T10:37:12;6.07;;;3.78;;
85297;SDS011;75703;45.506;-73.576;2024-02-21T10:39:38;5.97;;;3.92;;
85297;SDS011;75703;45.506;-73.576;2024-02-21T10:42:14;6.60;;;4.38;;
85297;SDS011;75703;45.506;-73.576;2024-02-21T10:44:43;6.07;;;4.40;;
85297;SDS011;75703;45.506;-73.576;2024-02-21T10:47:12;7.22;;;4.10;;
85297;SDS011;75703;45.506;-73.576;2024-02-21T10:49:41;7.63;;;4.05;;
85297;SDS011;75703;45.506;-73.576;2024-02-21T10:52:22;6.43;;;4.20;;
85297;SDS011;75703;45.506;-73.576;2024-02-21T10:55:20;7.03;;;4.38;;
85297;SDS011;75703;45.506;-73.576;2024-02-21T10:57:49;7.97;;;4.22;;
85297;SDS011;75703;45.506;-73.576;2024-02-21T11:00:16;9.32;;;4.63;;
85297;SDS011;75703;45.506;-73.576;2024-02-21T11:02:44;6.50;;;4.45;;
85297;SDS011;75703;45.506;-73.576;2024-02-21T11:05:12;6.68;;;4.13;;
85297;SDS011;75703;45.506;-73.576;2024-02-21T11:07:39;6.88;;;4.20;;
85297;SDS011;75703;45.506;-73.576;2024-02-21T11:10:39;7.25;;;4.00;;
85297;SDS011;75703;45.506;-73.576;2024-02-21T11:15:39;7.50;;;4.75;;
85297;SDS011;75703;45.506;-73.576;2024-02-21T11:18:12;7.25;;;4.15;;
85297;SDS011;75703;45.506;-73.576;2024-02-21T11:20:49;6.75;;;4.22;;
85297;SDS011;75703;45.506;-73.576;2024-02-21T11:23:25;5.72;;;4.10;;
85297;SDS011;75703;45.506;-73.576;2024-02-21T11:25:51;6.40;;;4.43;;
85297;SDS011;75703;45.506;-73.576;2024-02-21T11:28:24;7.03;;;4.10;;
85297;SDS011;75703;45.506;-73.576;2024-02-21T11:30:50;8.02;;;4.15;;
85297;SDS011;75703;45.506;-73.576;2024-02-21T11:33:17;6.15;;;3.90;;
85297;SDS011;75703;45.506;-73.576;2024-02-21T11:35:42;7.30;;;4.18;;
85297;SDS011;75703;45.506;-73.576;2024-02-21T11:38:14;7.03;;;4.95;;
85297;SDS011;75703;45.506;-73.576;2024-02-21T11:40:45;5.95;;;4.03;;
85297;SDS011;75703;45.506;-73.576;2024-02-21T11:43:15;7.90;;;4.35;;
85297;SDS011;75703;45.506;-73.576;2024-02-21T11:45:41;9.45;;;4.72;;
85297;SDS011;75703;45.506;-73.576;2024-02-21T11:48:12;6.38;;;4.28;;
85297;SDS011;75703;45.506;-73.576;2024-02-21T11:50:38;7.80;;;4.47;;
85297;SDS011;75703;45.506;-73.576;2024-02-21T11:53:05;6.72;;;4.40;;
85297;SDS011;75703;45.506;-73.576;2024-02-21T11:55:38;7.80;;;4.00;;
85297;SDS011;75703;45.506;-73.576;2024-02-21T11:58:03;6.90;;;4.20;;
85297;SDS011;75703;45.506;-73.576;2024-02-21T12:00:29;8.93;;;4.50;;
85297;SDS011;75703;45.506;-73.576;2024-02-21T12:02:56;7.40;;;4.45;;
85297;SDS011;75703;45.506;-73.576;2024-02-21T12:05:27;7.50;;;4.35;;
85297;SDS011;75703;45.506;-73.576;2024-02-21T12:07:54;10.60;;;5.20;;
85297;SDS011;75703;45.506;-73.576;2024-02-21T12:10:20;7.47;;;4.30;;
85297;SDS011;75703;45.506;-73.576;2024-02-21T12:12:46;6.53;;;4.55;;
85297;SDS011;75703;45.506;-73.576;2024-02-21T12:15:14;7.50;;;4.70;;
85297;SDS011;75703;45.506;-73.576;2024-02-21T12:17:40;9.45;;;4.90;;
85297;SDS011;75703;45.506;-73.576;2024-02-21T12:20:12;8.15;;;5.00;;
85297;SDS011;75703;45.506;-73.576;2024-02-21T12:22:39;9.35;;;5.05;;
85297;SDS011;75703;45.506;-73.576;2024-02-21T12:25:15;7.35;;;4.28;;
85297;SDS011;75703;45.506;-73.576;2024-02-21T12:27:47;9.77;;;5.15;;
85297;SDS011;75703;45.506;-73.576;2024-02-21T12:30:14;10.38;;;5.60;;
85297;SDS011;75703;45.506;-73.576;2024-02-21T12:32:40;9.90;;;5.55;;
85297;SDS011;75703;45.506;-73.576;2024-02-21T12:35:12;10.77;;;6.70;;
85297;SDS011;75703;45.506;-73.576;2024-02-21T12:37:38;10.02;;;5.57;;
85297;SDS011;75703;45.506;-73.576;2024-02-21T12:40:05;10.75;;;6.28;;
85297;SDS011;75703;45.506;-73.576;2024-02-21T12:42:38;13.68;;;7.75;;
85297;SDS011;75703;45.506;-73.576;2024-02-21T12:45:04;14.90;;;7.43;;
85297;SDS011;75703;45.506;-73.576;2024-02-21T12:47:38;12.10;;;6.25;;
85297;SDS011;75703;45.506;-73.576;2024-02-21T12:50:12;10.70;;;6.32;;
85297;SDS011;75703;45.506;-73.576;2024-02-21T12:52:39;10.68;;;6.35;;
85297;SDS011;75703;45.506;-73.576;2024-02-21T12:55:12;11.63;;;5.47;;
85297;SDS011;75703;45.506;-73.576;2024-02-21T12:57:39;11.38;;;6.35;;
85297;SDS011;75703;45.506;-73.576;2024-02-21T13:00:12;11.45;;;6.13;;
85297;SDS011;75703;45.506;-73.576;2024-02-21T13:02:39;8.88;;;5.30;;
85297;SDS011;75703;45.506;-73.576;2024-02-21T13:05:12;11.45;;;6.90;;
85297;SDS011;75703;45.506;-73.576;2024-02-21T13:07:38;12.57;;;6.43;;
85297;SDS011;75703;45.506;-73.576;2024-02-21T13:10:04;14.15;;;6.82;;
85297;SDS011;75703;45.506;-73.576;2024-02-21T13:12:37;11.20;;;6.35;;
85297;SDS011;75703;45.506;-73.576;2024-02-21T13:15:03;11.25;;;5.95;;
85297;SDS011;75703;45.506;-73.576;2024-02-21T13:17:30;13.07;;;6.15;;
85297;SDS011;75703;45.506;-73.576;2024-02-21T13:19:57;10.85;;;5.57;;
85297;SDS011;75703;45.506;-73.576;2024-02-21T13:22:22;8.85;;;5.72;;
85297;SDS011;75703;45.506;-73.576;2024-02-21T13:24:51;11.45;;;6.03;;
85297;SDS011;75703;45.506;-73.576;2024-02-21T13:27:17;12.52;;;5.85;;
85297;SDS011;75703;45.506;-73.576;2024-02-21T13:29:42;17.70;;;8.45;;
85297;SDS011;75703;45.506;-73.576;2024-02-21T13:32:12;11.63;;;6.43;;
85297;SDS011;75703;45.506;-73.576;2024-02-21T13:34:39;10.38;;;5.93;;
85297;SDS011;75703;45.506;-73.576;2024-02-21T13:37:12;10.35;;;5.82;;
85297;SDS011;75703;45.506;-73.576;2024-02-21T13:39:39;11.48;;;6.22;;
85297;SDS011;75703;45.506;-73.576;2024-02-21T13:42:05;13.93;;;7.40;;
85297;SDS011;75703;45.506;-73.576;2024-02-21T13:44:38;8.00;;;4.80;;
85297;SDS011;75703;45.506;-73.576;2024-02-21T13:47:04;10.30;;;6.03;;
85297;SDS011;75703;45.506;-73.576;2024-02-21T13:49:30;9.73;;;5.75;;
85297;SDS011;75703;45.506;-73.576;2024-02-21T13:51:56;8.82;;;5.25;;
85297;SDS011;75703;45.506;-73.576;2024-02-21T13:54:22;8.93;;;5.57;;
85297;SDS011;75703;45.506;-73.576;2024-02-21T13:56:47;10.55;;;5.65;;
85297;SDS011;75703;45.506;-73.576;2024-02-21T13:59:13;13.77;;;5.85;;
85297;SDS011;75703;45.506;-73.576;2024-02-21T14:01:39;12.40;;;6.78;;
85297;SDS011;75703;45.506;-73.576;2024-02-21T14:04:05;11.32;;;6.57;;
85297;SDS011;75703;45.506;-73.576;2024-02-21T14:06:38;10.85;;;5.55;;
85297;SDS011;75703;45.506;-73.576;2024-02-21T14:09:12;9.75;;;5.68;;
85297;SDS011;75703;45.506;-73.576;2024-02-21T14:11:38;11.60;;;6.15;;
85297;SDS011;75703;45.506;-73.576;2024-02-21T14:14:12;11.82;;;6.45;;
85297;SDS011;75703;45.506;-73.576;2024-02-21T14:16:40;10.05;;;5.82;;
85297;SDS011;75703;45.506;-73.576;2024-02-21T14:19:12;9.30;;;5.18;;
85297;SDS011;75703;45.506;-73.576;2024-02-21T14:21:38;9.70;;;5.47;;
85297;SDS011;75703;45.506;-73.576;2024-02-21T14:24:04;11.23;;;5.75;;
85297;SDS011;75703;45.506;-73.576;2024-02-21T14:26:38;10.60;;;6.22;;